createdAt,value
2022-10-11T00:01:20.168Z,95578.06
2022-10-11T00:03:46.811Z,95580.50
2022-10-11T00:06:13.417Z,95582.03
2022-10-11T00:08:40.057Z,95587.72
2022-10-11T00:11:08.216Z,95586.75
2022-10-11T00:13:35.672Z,95600.34
2022-10-11T00:16:08.476Z,95598.59
2022-10-11T00:18:35.400Z,95597.69
2022-10-11T00:21:04.641Z,95602.19
2022-10-11T00:23:31.521Z,95599.44
2022-10-11T00:26:03.997Z,95598.75
2022-10-11T00:28:31.175Z,95600.66
2022-10-11T00:30:57.972Z,95599.41
2022-10-11T00:33:24.929Z,95597.06
2022-10-11T00:35:51.547Z,95596.50
2022-10-11T00:38:18.284Z,95599.13
2022-10-11T00:40:45.452Z,95601.97
2022-10-11T00:43:17.854Z,95603.06
2022-10-11T00:46:13.776Z,95608.75
2022-10-11T00:48:42.181Z,95602.78
2022-10-11T00:51:14.325Z,95599.25
2022-10-11T00:53:44.699Z,95590.31
2022-10-11T00:56:23.708Z,95600.91
2022-10-11T00:58:50.694Z,95600.50
2022-10-11T01:01:17.595Z,95605.81
2022-10-11T01:03:44.857Z,95606.34
2022-10-11T01:06:11.411Z,95601.56
2022-10-11T01:08:38.796Z,95595.31
2022-10-11T01:11:05.903Z,95602.00
2022-10-11T01:13:58.274Z,95608.50
2022-10-11T01:16:30.947Z,95608.38
2022-10-11T01:19:29.074Z,95606.16
2022-10-11T01:22:27.338Z,95606.03
2022-10-11T01:25:27.184Z,95602.50
2022-10-11T01:28:25.457Z,95600.59
2022-10-11T01:31:01.664Z,95602.88
2022-10-11T01:33:53.088Z,95602.06
2022-10-11T01:36:32.726Z,95602.47
2022-10-11T01:39:11.890Z,95596.19
2022-10-11T01:41:47.219Z,95597.69
2022-10-11T01:44:14.616Z,95595.25
2022-10-11T01:46:41.890Z,95595.41
2022-10-11T01:49:09.321Z,95589.94
2022-10-11T01:51:48.728Z,95597.53
2022-10-11T01:55:09.224Z,95591.16
2022-10-11T01:58:04.221Z,95586.66
2022-10-11T02:00:49.069Z,95585.41
2022-10-11T02:03:18.688Z,95581.06
2022-10-11T02:05:57.602Z,95578.34
2022-10-11T02:08:39.509Z,95582.53
2022-10-11T02:11:21.224Z,95574.78
2022-10-11T02:13:52.383Z,95572.75
2022-10-11T02:16:26.229Z,95567.69
2022-10-11T02:18:56.748Z,95571.94
2022-10-11T02:21:24.653Z,95570.03
2022-10-11T02:24:01.196Z,95563.72
2022-10-11T02:26:31.506Z,95556.13
2022-10-11T02:29:01.322Z,95566.47
2022-10-11T02:31:30.724Z,95562.25
2022-10-11T02:34:03.349Z,95563.19
2022-10-11T02:37:11.885Z,95568.38
2022-10-11T02:40:07.687Z,95572.44
2022-10-11T02:42:39.255Z,95575.50
2022-10-11T02:45:11.641Z,95576.47
2022-10-11T02:47:39.535Z,95577.03
2022-10-11T02:50:06.435Z,95577.16
2022-10-11T02:52:35.827Z,95577.72
2022-10-11T02:55:02.377Z,95575.16
2022-10-11T02:57:28.934Z,95575.94
2022-10-11T02:59:55.521Z,95581.25
2022-10-11T03:02:22.128Z,95581.66
2022-10-11T03:04:48.713Z,95574.59
2022-10-11T03:07:15.268Z,95582.03
2022-10-11T03:09:42.141Z,95588.56
2022-10-11T03:12:08.760Z,95587.22
2022-10-11T03:14:35.309Z,95583.94
2022-10-11T03:17:23.689Z,95590.31
2022-10-11T03:19:49.107Z,95592.25
2022-10-11T03:22:16.387Z,95597.44
2022-10-11T03:24:42.977Z,95599.88
2022-10-11T03:27:09.612Z,95605.97
2022-10-11T03:29:36.239Z,95606.13
2022-10-11T03:32:02.996Z,95605.56
2022-10-11T03:34:29.823Z,95613.03
2022-10-11T03:36:56.431Z,95619.00
2022-10-11T03:39:23.114Z,95615.44
2022-10-11T03:41:49.634Z,95616.09
2022-10-11T03:44:19.081Z,95615.56
2022-10-11T03:46:45.675Z,95626.19
2022-10-11T03:49:12.277Z,95623.75
2022-10-11T03:51:38.848Z,95618.69
2022-10-11T03:54:05.455Z,95617.75
2022-10-11T03:56:32.551Z,95625.25
2022-10-11T03:58:59.161Z,95625.53
2022-10-11T04:01:25.773Z,95621.44
2022-10-11T04:03:55.620Z,95618.03
2022-10-11T04:06:22.152Z,95621.97
2022-10-11T04:08:48.804Z,95624.72
2022-10-11T04:11:15.887Z,95616.97
2022-10-11T04:13:45.224Z,95612.31
2022-10-11T04:16:11.785Z,95616.53
2022-10-11T04:18:38.346Z,95620.78
2022-10-11T04:21:05.039Z,95617.81
2022-10-11T04:23:32.671Z,95615.38
2022-10-11T04:25:59.578Z,95615.22
2022-10-11T04:28:26.772Z,95622.44
2022-10-11T04:30:53.394Z,95613.34
2022-10-11T04:33:19.940Z,95615.28
2022-10-11T04:35:46.498Z,95619.91
2022-10-11T04:38:13.038Z,95621.66
2022-10-11T04:40:39.589Z,95620.31
2022-10-11T04:43:06.789Z,95616.34
2022-10-11T04:45:33.295Z,95620.47
2022-10-11T04:47:59.844Z,95616.25
2022-10-11T04:50:26.451Z,95623.72
2022-10-11T04:52:57.319Z,95622.22
2022-10-11T04:55:23.953Z,95618.28
2022-10-11T04:57:50.500Z,95620.88
2022-10-11T05:00:17.384Z,95625.94
2022-10-11T05:02:43.944Z,95623.34
2022-10-11T05:05:10.651Z,95627.16
2022-10-11T05:07:37.204Z,95628.38
2022-10-11T05:10:04.179Z,95635.03
2022-10-11T05:12:30.754Z,95631.09
2022-10-11T05:14:58.051Z,95631.47
2022-10-11T05:17:24.606Z,95640.75
2022-10-11T05:19:51.177Z,95634.22
2022-10-11T05:22:17.849Z,95640.75
2022-10-11T05:24:44.423Z,95642.91
2022-10-11T05:27:11.016Z,95640.59
2022-10-11T05:29:37.602Z,95630.81
2022-10-11T05:32:04.411Z,95639.66
2022-10-11T05:34:30.977Z,95643.06
2022-10-11T05:36:57.587Z,95647.13
2022-10-11T05:39:24.383Z,95645.91
2022-10-11T05:41:51.904Z,95640.31
2022-10-11T05:44:18.487Z,95647.69
2022-10-11T05:46:45.056Z,95650.41
2022-10-11T05:49:11.651Z,95650.66
2022-10-11T05:51:38.243Z,95655.56
2022-10-11T05:54:04.841Z,95666.16
2022-10-11T05:56:31.395Z,95661.41
2022-10-11T05:59:02.218Z,95669.16
2022-10-11T06:01:29.418Z,95673.88
2022-10-11T06:03:56.152Z,95668.34
2022-10-11T06:06:23.561Z,95673.34
2022-10-11T06:08:50.201Z,95674.72
2022-10-11T06:11:20.498Z,95676.91
2022-10-11T06:13:47.483Z,95679.34
2022-10-11T06:16:14.514Z,95675.53
2022-10-11T06:18:41.137Z,95677.69
2022-10-11T06:21:07.677Z,95682.06
2022-10-11T06:23:36.597Z,95677.84
2022-10-11T06:26:08.894Z,95677.69
2022-10-11T06:28:37.105Z,95682.59
2022-10-11T06:31:05.608Z,95692.53
2022-10-11T06:33:32.503Z,95685.34
2022-10-11T06:36:01.804Z,95686.25
2022-10-11T06:38:28.495Z,95687.91
2022-10-11T06:40:55.248Z,95689.09
2022-10-11T06:43:22.585Z,95688.00
2022-10-11T06:45:49.452Z,95690.84
2022-10-11T06:48:16.053Z,95685.41
2022-10-11T06:50:59.023Z,95692.22
2022-10-11T06:53:29.354Z,95701.31
2022-10-11T06:56:02.925Z,95703.03
2022-10-11T06:58:29.993Z,95702.88
2022-10-11T07:01:03.663Z,95706.94
2022-10-11T07:03:30.739Z,95703.88
2022-10-11T07:06:02.809Z,95710.09
2022-10-11T07:08:29.776Z,95708.72
2022-10-11T07:11:11.100Z,95709.13
2022-10-11T07:13:38.478Z,95710.56
2022-10-11T07:16:09.040Z,95711.81
2022-10-11T07:18:36.153Z,95717.34
2022-10-11T07:21:07.505Z,95713.13
2022-10-11T07:23:34.386Z,95717.78
2022-10-11T07:26:01.210Z,95722.22
2022-10-11T07:28:31.277Z,95720.56
2022-10-11T07:30:58.813Z,95725.06
2022-10-11T07:33:25.456Z,95726.16
2022-10-11T07:35:57.028Z,95726.25
2022-10-11T07:38:23.616Z,95725.28
2022-10-11T07:40:50.147Z,95730.56
2022-10-11T07:43:16.771Z,95730.56
2022-10-11T07:45:45.375Z,95733.06
2022-10-11T07:48:11.969Z,95729.47
2022-10-11T07:50:38.952Z,95735.38
2022-10-11T07:53:05.595Z,95737.00
2022-10-11T07:55:40.042Z,95737.69
2022-10-11T07:58:10.064Z,95726.19
2022-10-11T08:00:37.784Z,95736.16
2022-10-11T08:03:05.819Z,95736.97
2022-10-11T08:05:33.267Z,95735.03
2022-10-11T08:07:59.959Z,95738.19
2022-10-11T08:10:27.355Z,95744.59
2022-10-11T08:12:54.026Z,95743.34
2022-10-11T08:15:21.169Z,95742.44
2022-10-11T08:17:47.767Z,95746.72
2022-10-11T08:20:14.604Z,95752.22
2022-10-11T08:22:41.211Z,95745.03
2022-10-11T08:25:08.149Z,95750.56
2022-10-11T08:27:34.699Z,95748.94
2022-10-11T08:30:01.278Z,95753.47
2022-10-11T08:32:29.650Z,95754.97
2022-10-11T08:34:56.846Z,95751.38
2022-10-11T08:37:23.422Z,95761.28
2022-10-11T08:39:50.087Z,95759.31
2022-10-11T08:42:31.972Z,95761.84
2022-10-11T08:45:11.030Z,95763.63
2022-10-11T08:47:44.341Z,95762.63
2022-10-11T08:50:19.791Z,95765.50
2022-10-11T08:52:53.057Z,95762.69
2022-10-11T08:55:48.064Z,95762.31
2022-10-11T08:58:22.120Z,95762.09
2022-10-11T09:00:53.831Z,95762.75
2022-10-11T09:03:40.350Z,95759.25
2022-10-11T09:06:37.431Z,95767.34
2022-10-11T09:09:16.175Z,95767.63
2022-10-11T09:11:47.328Z,95762.28
2022-10-11T09:14:34.293Z,95762.38
2022-10-11T09:17:38.742Z,95758.56
2022-10-11T09:20:11.461Z,95759.41
2022-10-11T09:22:44.095Z,95761.09
2022-10-11T09:25:26.063Z,95757.00
2022-10-11T09:28:11.745Z,95754.56
2022-10-11T09:30:46.055Z,95755.69
2022-10-11T09:33:23.835Z,95750.19
2022-10-11T09:35:52.403Z,95755.44
2022-10-11T09:38:21.944Z,95752.53
2022-10-11T09:41:00.424Z,95751.97
2022-10-11T09:43:27.023Z,95752.25
2022-10-11T09:45:53.633Z,95754.28
2022-10-11T09:48:24.785Z,95762.97
2022-10-11T09:50:54.230Z,95753.03
2022-10-11T09:53:40.773Z,95751.84
2022-10-11T09:56:07.866Z,95750.66
2022-10-11T09:58:36.116Z,95756.22
2022-10-11T10:01:08.541Z,95753.97
2022-10-11T10:03:41.222Z,95752.09
2022-10-11T10:06:22.014Z,95754.38
2022-10-11T10:08:48.627Z,95755.50
2022-10-11T10:11:15.389Z,95754.22
2022-10-11T10:13:49.256Z,95747.91
2022-10-11T10:16:40.236Z,95752.00
2022-10-11T10:19:21.359Z,95749.38
2022-10-11T10:21:56.733Z,95749.59
2022-10-11T10:24:41.029Z,95745.78
2022-10-11T10:27:10.177Z,95746.22
2022-10-11T10:29:37.758Z,95741.00
2022-10-11T10:32:15.146Z,95742.28
2022-10-11T10:35:02.869Z,95740.94
2022-10-11T10:37:34.401Z,95741.31
2022-10-11T10:40:10.244Z,95738.97
2022-10-11T10:42:37.422Z,95736.38
2022-10-11T10:45:12.181Z,95738.31
2022-10-11T10:48:17.325Z,95739.22
2022-10-11T10:50:55.800Z,95737.75
2022-10-11T10:53:47.251Z,95735.75
2022-10-11T10:56:24.840Z,95732.53
2022-10-11T10:59:00.428Z,95727.09
2022-10-11T11:01:29.138Z,95730.72
2022-10-11T11:04:29.662Z,95724.47
2022-10-11T11:07:04.058Z,95730.16
2022-10-11T11:09:30.864Z,95725.38
2022-10-11T11:12:27.671Z,95723.56
2022-10-11T11:15:09.168Z,95720.94
2022-10-11T11:17:59.533Z,95722.88
2022-10-11T11:20:47.832Z,95717.81
2022-10-11T11:23:39.723Z,95721.81
2022-10-11T11:26:26.987Z,95727.00
2022-10-11T11:29:04.917Z,95717.06
2022-10-11T11:31:40.363Z,95721.53
2022-10-11T11:34:15.954Z,95705.97
2022-10-11T11:36:47.459Z,95707.47
2022-10-11T11:39:22.667Z,95707.16
2022-10-11T11:42:08.838Z,95713.03
2022-10-11T11:44:43.095Z,95709.66
2022-10-11T11:47:17.919Z,95707.75
2022-10-11T11:49:54.914Z,95706.06
2022-10-11T11:52:41.522Z,95706.41
2022-10-11T11:55:18.338Z,95711.91
2022-10-11T11:57:58.891Z,95705.88
2022-10-11T12:00:52.890Z,95705.44
2022-10-11T12:03:26.813Z,95714.06
2022-10-11T12:06:12.244Z,95710.41
2022-10-11T12:08:40.913Z,95712.94
2022-10-11T12:11:22.098Z,95707.19
2022-10-11T12:13:50.934Z,95708.47
2022-10-11T12:16:17.816Z,95705.69
2022-10-11T12:18:56.519Z,95706.72
2022-10-11T12:21:26.020Z,95698.88
2022-10-11T12:24:01.505Z,95695.50
2022-10-11T12:26:28.032Z,95692.44
2022-10-11T12:29:29.084Z,95684.41
2022-10-11T12:31:58.816Z,95683.78
2022-10-11T12:34:36.165Z,95683.97
2022-10-11T12:37:17.824Z,95680.69
2022-10-11T12:39:58.608Z,95684.94
2022-10-11T12:42:28.890Z,95686.88
2022-10-11T12:45:13.608Z,95682.63
2022-10-11T12:48:07.494Z,95682.16
2022-10-11T12:51:02.969Z,95675.94
2022-10-11T12:54:07.900Z,95674.09
2022-10-11T12:57:02.871Z,95672.88
2022-10-11T12:59:31.578Z,95672.38
2022-10-11T13:02:00.100Z,95662.50
2022-10-11T13:04:29.243Z,95665.94
2022-10-11T13:07:13.130Z,95664.41
2022-10-11T13:09:43.249Z,95665.94
2022-10-11T13:12:17.948Z,95660.84
2022-10-11T13:14:48.238Z,95664.66
2022-10-11T13:17:14.773Z,95668.91
2022-10-11T13:22:20.541Z,95663.00
2022-10-11T13:24:47.279Z,95659.59
2022-10-11T13:27:27.795Z,95664.06
2022-10-11T13:29:59.337Z,95653.88
2022-10-11T13:32:29.622Z,95658.03
2022-10-11T13:35:00.921Z,95657.28
2022-10-11T13:37:29.261Z,95650.50
2022-10-11T13:39:57.289Z,95654.88
2022-10-11T13:42:30.851Z,95657.75
2022-10-11T13:44:59.337Z,95650.22
2022-10-11T13:47:31.950Z,95661.50
2022-10-11T13:50:10.939Z,95644.16
2022-10-11T13:52:50.356Z,95646.38
2022-10-11T13:55:34.055Z,95644.50
2022-10-11T13:58:03.481Z,95643.19
2022-10-11T14:00:37.226Z,95649.41
2022-10-11T14:03:12.836Z,95644.75
2022-10-11T14:05:43.109Z,95642.88
2022-10-11T14:08:37.663Z,95644.38
2022-10-11T14:11:06.825Z,95638.50
2022-10-11T14:13:35.717Z,95646.63
2022-10-11T14:16:20.697Z,95640.38
2022-10-11T14:19:00.413Z,95644.41
2022-10-11T14:21:45.786Z,95636.97
2022-10-11T14:24:13.677Z,95642.59
2022-10-11T14:26:41.962Z,95639.69
2022-10-11T14:29:32.856Z,95647.78
2022-10-11T14:32:03.758Z,95645.50
2022-10-11T14:34:31.611Z,95641.97
2022-10-11T14:36:58.178Z,95651.66
2022-10-11T14:39:27.471Z,95650.28
2022-10-11T14:41:54.567Z,95651.50
2022-10-11T14:44:22.334Z,95654.28
2022-10-11T14:46:50.745Z,95651.81
2022-10-11T14:49:37.287Z,95655.97
2022-10-11T14:52:07.116Z,95657.19
2022-10-11T14:54:34.065Z,95652.19
2022-10-11T14:57:03.614Z,95653.22
2022-10-11T14:59:36.944Z,95658.00
2022-10-11T15:02:05.605Z,95658.44
2022-10-11T15:04:32.188Z,95655.31
2022-10-11T15:06:59.077Z,95653.78
2022-10-11T15:09:28.091Z,95647.97
2022-10-11T15:11:55.445Z,95651.31
2022-10-11T15:14:23.772Z,95649.75
2022-10-11T15:16:50.607Z,95649.00
2022-10-11T15:19:20.846Z,95653.81
2022-10-11T15:21:47.638Z,95652.91
2022-10-11T15:24:14.983Z,95656.59
2022-10-11T15:26:41.649Z,95654.59
2022-10-11T15:29:14.521Z,95656.84
2022-10-11T15:31:41.120Z,95659.50
2022-10-11T15:34:07.748Z,95655.47
2022-10-11T15:36:37.362Z,95655.16
2022-10-11T15:39:04.071Z,95649.41
2022-10-11T15:41:30.621Z,95654.53
2022-10-11T15:43:57.236Z,95658.44
2022-10-11T15:46:23.864Z,95657.31
2022-10-11T15:48:52.268Z,95662.53
2022-10-11T15:51:19.604Z,95665.03
2022-10-11T15:53:47.374Z,95669.59
2022-10-11T15:56:17.126Z,95665.25
2022-10-11T15:58:43.750Z,95662.97
2022-10-11T16:01:17.820Z,95668.34
2022-10-11T16:03:45.737Z,95666.09
2022-10-11T16:06:12.917Z,95663.78
2022-10-11T16:08:44.438Z,95661.69
2022-10-11T16:11:12.457Z,95663.47
2022-10-11T16:13:39.370Z,95664.31
2022-10-11T16:16:07.973Z,95665.75
2022-10-11T16:18:35.894Z,95668.53
2022-10-11T16:21:10.130Z,95661.56
2022-10-11T16:23:38.413Z,95668.34
2022-10-11T16:26:07.860Z,95664.63
2022-10-11T16:28:35.676Z,95661.69
2022-10-11T16:31:11.521Z,95660.22
2022-10-11T16:33:45.960Z,95673.41
2022-10-11T16:36:36.367Z,95671.09
2022-10-11T16:39:08.120Z,95676.78
2022-10-11T16:41:35.004Z,95674.16
2022-10-11T16:44:01.631Z,95677.91
2022-10-11T16:46:28.500Z,95672.06
2022-10-11T16:48:58.700Z,95676.59
2022-10-11T16:51:25.477Z,95683.38
2022-10-11T16:53:52.663Z,95680.31
2022-10-11T16:56:20.566Z,95684.53
2022-10-11T16:58:47.140Z,95687.28
2022-10-11T17:01:14.004Z,95690.28
2022-10-11T17:03:40.641Z,95684.16
2022-10-11T17:06:08.057Z,95693.22
2022-10-11T17:08:35.606Z,95683.00
2022-10-11T17:11:02.763Z,95688.81
2022-10-11T17:13:29.667Z,95685.19
2022-10-11T17:15:56.614Z,95689.78
2022-10-11T17:18:23.285Z,95692.22
2022-10-11T17:20:49.953Z,95688.03
2022-10-11T17:23:16.546Z,95692.84
2022-10-11T17:25:44.808Z,95688.16
2022-10-11T17:28:12.165Z,95689.63
2022-10-11T17:30:40.842Z,95685.34
2022-10-11T17:33:07.710Z,95687.41
2022-10-11T17:35:34.786Z,95685.97
2022-10-11T17:38:05.952Z,95690.00
2022-10-11T17:40:33.251Z,95687.56
2022-10-11T17:43:02.741Z,95693.88
2022-10-11T17:45:29.375Z,95686.09
2022-10-11T17:47:55.976Z,95690.63
2022-10-11T17:50:22.558Z,95687.53
2022-10-11T17:52:49.168Z,95688.78
2022-10-11T17:55:15.805Z,95686.34
2022-10-11T17:57:42.466Z,95694.09
2022-10-11T18:00:09.793Z,95687.63
2022-10-11T18:02:36.379Z,95688.25
2022-10-11T18:05:03.268Z,95686.16
2022-10-11T18:07:29.865Z,95693.22
2022-10-11T18:09:56.989Z,95685.16
2022-10-11T18:12:23.674Z,95692.44
2022-10-11T18:14:51.099Z,95686.81
2022-10-11T18:17:18.416Z,95689.28
2022-10-11T18:19:45.071Z,95680.44
2022-10-11T18:22:11.720Z,95680.66
2022-10-11T18:24:39.114Z,95685.94
2022-10-11T18:27:05.725Z,95677.28
2022-10-11T18:29:32.386Z,95679.88
2022-10-11T18:32:01.835Z,95689.16
2022-10-11T18:34:28.377Z,95680.63
2022-10-11T18:36:55.275Z,95681.28
2022-10-11T18:39:22.107Z,95673.34
2022-10-11T18:41:48.916Z,95677.19
2022-10-11T18:44:16.111Z,95677.38
2022-10-11T18:46:43.231Z,95671.75
2022-10-11T18:49:10.047Z,95675.84
2022-10-11T18:51:39.410Z,95682.72
2022-10-11T18:54:07.321Z,95676.13
2022-10-11T18:56:37.666Z,95688.44
2022-10-11T18:59:05.611Z,95684.28
2022-10-11T19:01:38.339Z,95681.41
2022-10-11T19:04:06.960Z,95686.03
2022-10-11T19:06:42.940Z,95682.66
2022-10-11T19:09:21.633Z,95682.81
2022-10-11T19:11:50.209Z,95680.78
2022-10-11T19:14:19.062Z,95685.19
2022-10-11T19:16:51.082Z,95686.13
2022-10-11T19:19:23.448Z,95682.19
2022-10-11T19:21:50.430Z,95674.41
2022-10-11T19:24:19.307Z,95677.72
2022-10-11T19:26:47.218Z,95679.63
2022-10-11T19:29:16.725Z,95680.59
2022-10-11T19:31:46.088Z,95675.03
2022-10-11T19:34:13.002Z,95670.38
2022-10-11T19:36:42.601Z,95664.53
2022-10-11T19:39:14.173Z,95672.22
2022-10-11T19:41:41.910Z,95672.81
2022-10-11T19:44:09.160Z,95679.53
2022-10-11T19:46:51.014Z,95681.56
2022-10-11T19:49:21.504Z,95676.38
2022-10-11T19:51:48.120Z,95682.00
2022-10-11T19:54:15.487Z,95685.84
2022-10-11T19:56:42.999Z,95679.19
2022-10-11T19:59:11.047Z,95691.38
2022-10-11T20:01:39.967Z,95685.63
2022-10-11T20:04:12.881Z,95695.69
2022-10-11T20:06:45.353Z,95690.88
2022-10-11T20:11:59.026Z,95698.50
2022-10-11T20:14:25.738Z,95696.38
2022-10-11T20:16:52.835Z,95692.59
2022-10-11T20:19:19.509Z,95700.50
2022-10-11T20:21:47.315Z,95695.03
2022-10-11T20:24:13.908Z,95697.38
2022-10-11T20:26:40.454Z,95697.81
2022-10-11T20:29:07.337Z,95700.41
2022-10-11T20:31:38.783Z,95699.97
2022-10-11T20:34:07.334Z,95698.50
2022-10-11T20:36:35.851Z,95698.44
2022-10-11T20:39:02.776Z,95697.47
2022-10-11T20:41:31.879Z,95693.47
2022-10-11T20:43:59.707Z,95692.13
2022-10-11T20:46:29.861Z,95688.09
2022-10-11T20:49:02.338Z,95685.34
2022-10-11T20:51:30.688Z,95686.59
2022-10-11T20:53:58.386Z,95679.09
2022-10-11T20:56:25.235Z,95674.75
2022-10-11T20:58:53.921Z,95680.81
2022-10-11T21:01:26.239Z,95682.38
2022-10-11T21:03:53.760Z,95688.00
2022-10-11T21:06:20.524Z,95687.63
2022-10-11T21:08:47.064Z,95686.44
2022-10-11T21:11:13.959Z,95678.50
2022-10-11T21:13:40.739Z,95677.16
2022-10-11T21:16:11.722Z,95681.31
2022-10-11T21:18:38.629Z,95682.72
2022-10-11T21:21:13.272Z,95684.69
2022-10-11T21:23:40.871Z,95689.19
2022-10-11T21:26:09.897Z,95687.91
2022-10-11T21:28:37.216Z,95679.47
2022-10-11T21:31:12.519Z,95680.03
2022-10-11T21:33:40.343Z,95680.22
2022-10-11T21:36:09.504Z,95679.28
2022-10-11T21:38:36.450Z,95679.97
2022-10-11T21:41:11.837Z,95681.19
2022-10-11T21:43:38.932Z,95683.75
2022-10-11T21:46:19.451Z,95675.63
2022-10-11T21:48:46.687Z,95671.69
2022-10-11T21:51:20.266Z,95674.94
2022-10-11T21:53:46.849Z,95672.72
2022-10-11T21:56:13.692Z,95671.22
2022-10-11T21:58:40.347Z,95665.22
2022-10-11T22:01:07.054Z,95669.06
2022-10-11T22:03:33.718Z,95664.97
2022-10-11T22:06:04.065Z,95665.28
2022-10-11T22:08:30.900Z,95664.06
2022-10-11T22:10:59.905Z,95666.38
2022-10-11T22:13:28.644Z,95666.50
2022-10-11T22:15:58.016Z,95668.94
2022-10-11T22:18:24.882Z,95668.56
2022-10-11T22:20:51.766Z,95668.81
2022-10-11T22:23:19.193Z,95658.91
2022-10-11T22:25:46.205Z,95659.16
2022-10-11T22:28:12.869Z,95667.03
2022-10-11T22:30:39.524Z,95658.75
2022-10-11T22:33:06.088Z,95657.28
2022-10-11T22:35:37.372Z,95651.72
2022-10-11T22:38:06.189Z,95649.31
2022-10-11T22:40:33.048Z,95652.44
2022-10-11T22:42:59.698Z,95647.03
2022-10-11T22:45:26.228Z,95645.00
2022-10-11T22:47:52.801Z,95647.19
2022-10-11T22:50:19.369Z,95658.78
2022-10-11T22:52:45.961Z,95654.19
2022-10-11T22:55:16.237Z,95654.44
2022-10-11T22:57:46.212Z,95660.03
2022-10-11T23:00:13.088Z,95657.59
2022-10-11T23:02:39.668Z,95657.47
2022-10-11T23:05:06.491Z,95651.75
2022-10-11T23:07:33.032Z,95654.47
2022-10-11T23:09:59.580Z,95651.09
2022-10-11T23:12:26.129Z,95655.13
2022-10-11T23:14:52.811Z,95660.88
2022-10-11T23:17:19.432Z,95652.16
2022-10-11T23:19:46.011Z,95657.19
2022-10-11T23:22:12.923Z,95658.00
2022-10-11T23:24:39.474Z,95663.56
2022-10-11T23:27:06.431Z,95660.44
2022-10-11T23:29:33.166Z,95663.16
2022-10-11T23:31:59.906Z,95656.47
2022-10-11T23:34:26.519Z,95661.75
2022-10-11T23:36:53.045Z,95661.47
2022-10-11T23:39:19.749Z,95655.19
2022-10-11T23:41:46.338Z,95655.59
2022-10-11T23:44:12.883Z,95654.66
2022-10-11T23:46:39.428Z,95660.22
2022-10-11T23:49:06.019Z,95657.75
2022-10-11T23:51:32.822Z,95653.13
2022-10-11T23:53:59.346Z,95653.50
2022-10-11T23:56:25.994Z,95660.47
2022-10-11T23:58:52.668Z,95657.34
